createdAt,value
2023-03-22T00:00:42.211Z,11.87
2023-03-22T00:04:45.917Z,11.85
2023-03-22T00:08:53.314Z,11.75
2023-03-22T00:12:57.179Z,11.74
2023-03-22T00:17:00.437Z,11.70
2023-03-22T00:21:03.858Z,11.70
2023-03-22T00:25:09.607Z,11.72
2023-03-22T00:29:12.872Z,11.71
2023-03-22T00:33:18.152Z,11.69
2023-03-22T00:37:21.376Z,11.75
2023-03-22T00:41:26.525Z,11.60
2023-03-22T00:45:29.729Z,11.44
2023-03-22T00:49:33.062Z,11.32
2023-03-22T00:53:37.110Z,11.31
2023-03-22T00:57:42.147Z,11.25
2023-03-22T01:01:46.485Z,11.12
2023-03-22T01:05:50.824Z,11.09
2023-03-22T01:09:55.513Z,11.04
2023-03-22T01:14:01.361Z,11.07
2023-03-22T01:18:05.202Z,10.97
2023-03-22T01:22:09.236Z,10.87
2023-03-22T01:26:13.005Z,10.85
2023-03-22T01:30:17.948Z,10.90
2023-03-22T01:34:22.380Z,10.98
2023-03-22T01:38:26.979Z,10.91
2023-03-22T01:42:34.425Z,10.84
2023-03-22T01:46:41.636Z,10.74
2023-03-22T01:50:50.595Z,10.73
2023-03-22T01:54:55.692Z,10.68
2023-03-22T01:59:21.003Z,10.72
2023-03-22T02:03:58.471Z,10.64
2023-03-22T02:08:04.678Z,10.60
2023-03-22T02:12:33.753Z,10.53
2023-03-22T02:16:57.148Z,10.47
2023-03-22T02:21:38.205Z,10.49
2023-03-22T02:26:07.849Z,10.48
2023-03-22T02:30:36.166Z,10.37
2023-03-22T02:35:00.348Z,10.29
2023-03-22T02:39:32.601Z,10.29
2023-03-22T02:43:42.966Z,10.30
2023-03-22T02:47:56.482Z,10.24
2023-03-22T02:52:05.744Z,10.29
2023-03-22T02:56:14.348Z,10.34
2023-03-22T03:00:20.319Z,10.46
2023-03-22T03:04:28.487Z,10.42
2023-03-22T03:08:35.289Z,10.53
2023-03-22T03:12:39.862Z,10.51
2023-03-22T03:16:42.979Z,10.63
2023-03-22T03:20:56.624Z,10.64
2023-03-22T03:25:09.171Z,10.57
2023-03-22T03:29:22.533Z,10.54
2023-03-22T03:33:28.794Z,10.61
2023-03-22T03:37:37.701Z,10.62
2023-03-22T03:41:45.514Z,10.60
2023-03-22T03:45:51.954Z,10.57
2023-03-22T03:49:55.210Z,10.66
2023-03-22T03:53:58.743Z,10.61
2023-03-22T03:58:02.047Z,10.55
2023-03-22T04:02:07.168Z,10.47
2023-03-22T04:06:10.698Z,10.46
2023-03-22T04:10:17.190Z,10.45
2023-03-22T04:14:20.800Z,10.50
2023-03-22T04:18:29.780Z,10.48
2023-03-22T04:22:38.544Z,10.47
2023-03-22T04:26:42.319Z,10.39
2023-03-22T04:31:04.009Z,10.37
2023-03-22T04:35:25.529Z,10.32
2023-03-22T04:39:30.703Z,10.15
2023-03-22T04:43:54.844Z,10.11
2023-03-22T04:47:58.264Z,10.23
2023-03-22T04:52:04.472Z,10.29
2023-03-22T04:56:15.934Z,10.39
2023-03-22T05:00:21.924Z,10.44
2023-03-22T05:04:27.399Z,10.44
2023-03-22T05:08:41.842Z,10.39
2023-03-22T05:12:45.596Z,10.57
2023-03-22T05:16:57.817Z,10.63
2023-03-22T05:21:04.348Z,10.67
2023-03-22T05:25:11.784Z,10.72
2023-03-22T05:29:19.266Z,10.77
2023-03-22T05:33:42.752Z,10.84
2023-03-22T05:37:49.006Z,10.88
2023-03-22T05:41:54.288Z,10.97
2023-03-22T05:45:57.833Z,10.92
2023-03-22T05:50:22.181Z,10.98
2023-03-22T05:54:26.628Z,10.96
2023-03-22T05:58:33.994Z,10.85
2023-03-22T06:02:38.219Z,10.98
2023-03-22T06:06:42.044Z,11.00
2023-03-22T06:11:01.120Z,11.08
2023-03-22T06:15:07.149Z,11.07
2023-03-22T06:19:42.719Z,11.07
2023-03-22T06:23:47.770Z,11.04
2023-03-22T06:27:51.093Z,11.16
2023-03-22T06:31:56.295Z,11.16
2023-03-22T06:36:02.054Z,11.28
2023-03-22T06:40:37.808Z,11.36
2023-03-22T06:44:43.917Z,11.36
2023-03-22T06:48:52.669Z,11.36
2023-03-22T06:52:56.258Z,11.44
2023-03-22T06:56:59.492Z,11.46
2023-03-22T07:01:02.794Z,11.59
2023-03-22T07:05:10.641Z,11.59
2023-03-22T07:09:14.349Z,11.64
2023-03-22T07:13:18.054Z,11.60
2023-03-22T07:17:23.114Z,11.54
2023-03-22T07:21:28.378Z,11.51
2023-03-22T07:25:35.893Z,11.49
2023-03-22T07:29:52.706Z,11.54
2023-03-22T07:33:56.226Z,11.53
2023-03-22T07:38:04.728Z,11.51
2023-03-22T07:42:09.946Z,11.46
2023-03-22T07:46:16.213Z,11.52
2023-03-22T07:50:58.164Z,11.50
2023-03-22T07:55:04.477Z,11.56
2023-03-22T07:59:07.869Z,11.56
2023-03-22T08:03:13.068Z,11.61
2023-03-22T08:07:31.724Z,11.60
2023-03-22T08:11:38.692Z,11.71
2023-03-22T08:15:43.362Z,11.76
2023-03-22T08:19:47.221Z,11.75
2023-03-22T08:23:57.142Z,11.85
2023-03-22T08:28:20.360Z,11.95
2023-03-22T08:32:23.605Z,11.87
2023-03-22T08:36:27.636Z,11.79
2023-03-22T08:40:37.762Z,11.85
2023-03-22T08:44:42.754Z,12.01
2023-03-22T08:48:50.997Z,12.10
2023-03-22T08:53:01.062Z,12.43
2023-03-22T08:57:09.613Z,12.41
2023-03-22T09:01:38.240Z,12.39
2023-03-22T09:05:44.058Z,12.36
2023-03-22T09:09:48.335Z,12.28
2023-03-22T09:13:52.635Z,12.33
2023-03-22T09:17:58.172Z,12.43
2023-03-22T09:22:01.579Z,12.54
2023-03-22T09:26:16.821Z,12.77
2023-03-22T09:30:22.760Z,12.45
2023-03-22T09:34:28.218Z,12.59
2023-03-22T09:38:35.521Z,12.79
2023-03-22T09:42:43.815Z,12.91
2023-03-22T09:46:53.242Z,12.78
2023-03-22T09:50:58.257Z,13.19
2023-03-22T09:55:01.534Z,13.00
2023-03-22T09:59:14.560Z,13.02
2023-03-22T10:03:25.758Z,12.91
2023-03-22T10:07:39.209Z,12.99
2023-03-22T10:11:46.866Z,12.93
2023-03-22T10:15:52.784Z,12.87
2023-03-22T10:20:01.726Z,12.75
2023-03-22T10:24:14.344Z,12.91
2023-03-22T10:28:21.485Z,12.82
2023-03-22T10:32:32.966Z,12.79
2023-03-22T10:36:39.127Z,13.11
2023-03-22T10:40:44.630Z,13.46
2023-03-22T10:44:51.729Z,13.13
2023-03-22T10:48:59.729Z,13.51
2023-03-22T10:53:06.960Z,13.11
2023-03-22T10:57:11.856Z,13.20
2023-03-22T11:01:18.515Z,13.24
2023-03-22T11:05:25.898Z,12.95
2023-03-22T11:09:29.415Z,12.95
2023-03-22T11:13:36.577Z,13.10
2023-03-22T11:17:42.297Z,13.49
2023-03-22T11:21:46.618Z,13.33
2023-03-22T11:25:51.926Z,13.24
2023-03-22T11:30:00.224Z,13.18
2023-03-22T11:34:03.739Z,13.04
2023-03-22T11:38:07.785Z,13.03
2023-03-22T11:42:21.796Z,13.09
2023-03-22T11:46:26.944Z,13.24
2023-03-22T11:50:32.356Z,13.06
2023-03-22T11:54:38.193Z,13.15
2023-03-22T11:58:50.877Z,13.30
2023-03-22T12:02:59.235Z,13.14
2023-03-22T12:07:07.369Z,13.19
2023-03-22T12:11:18.298Z,13.26
2023-03-22T12:15:24.538Z,13.19
2023-03-22T12:19:43.507Z,13.26
2023-03-22T12:23:46.918Z,13.27
2023-03-22T12:27:54.431Z,13.18
2023-03-22T12:32:03.524Z,13.37
2023-03-22T12:36:14.810Z,13.32
2023-03-22T12:40:23.753Z,13.32
2023-03-22T12:44:30.393Z,13.39
2023-03-22T12:48:39.974Z,13.40
2023-03-22T12:52:47.857Z,13.53
2023-03-22T12:56:51.931Z,13.45
2023-03-22T13:00:58.730Z,13.50
2023-03-22T13:05:05.122Z,13.53
2023-03-22T13:09:19.543Z,13.42
2023-03-22T13:13:44.476Z,13.50
2023-03-22T13:17:49.456Z,13.53
2023-03-22T13:21:54.857Z,13.52
2023-03-22T13:26:06.799Z,13.73
2023-03-22T13:30:18.291Z,13.61
2023-03-22T13:34:31.193Z,13.73
2023-03-22T13:38:37.200Z,13.75
2023-03-22T13:42:42.959Z,13.74
2023-03-22T13:46:51.309Z,13.72
2023-03-22T13:50:55.801Z,13.69
2023-03-22T13:55:00.190Z,13.63
2023-03-22T13:59:06.268Z,13.70
2023-03-22T14:03:17.060Z,13.72
2023-03-22T14:07:27.021Z,13.81
2023-03-22T14:11:36.042Z,13.88
2023-03-22T14:15:46.771Z,13.98
2023-03-22T14:19:51.671Z,13.89
